createdAt,value
2019-01-25T00:00:40.359Z,56.73
2019-01-25T00:03:10.550Z,52.70
2019-01-25T00:05:37.590Z,61.60
2019-01-25T00:08:04.529Z,74.70
2019-01-25T00:10:31.582Z,54.33
2019-01-25T00:12:58.524Z,63.55
2019-01-25T00:15:25.426Z,64.40
2019-01-25T00:17:51.958Z,57.13
2019-01-25T00:20:18.788Z,62.00
2019-01-25T00:22:49.998Z,58.50
2019-01-25T00:25:17.947Z,48.10
2019-01-25T00:27:56.423Z,67.30
2019-01-25T00:30:25.364Z,63.98
2019-01-25T00:32:52.889Z,60.67
2019-01-25T00:35:19.615Z,67.80
2019-01-25T00:37:46.094Z,59.35
2019-01-25T00:40:19.807Z,59.90
2019-01-25T00:42:46.355Z,63.00
2019-01-25T00:45:14.712Z,56.10
2019-01-25T00:47:42.277Z,67.47
2019-01-25T00:50:18.176Z,54.07
2019-01-25T00:52:57.196Z,59.97
2019-01-25T00:55:29.154Z,47.47
2019-01-25T00:57:55.941Z,52.03
2019-01-25T01:00:25.881Z,52.35
2019-01-25T01:02:54.455Z,55.38
2019-01-25T01:05:21.588Z,45.60
2019-01-25T01:07:51.778Z,46.77
2019-01-25T01:10:19.509Z,39.87
2019-01-25T01:12:46.258Z,44.13
2019-01-25T01:15:14.155Z,44.95
2019-01-25T01:17:50.879Z,54.88
2019-01-25T01:20:19.715Z,42.23
2019-01-25T01:22:48.526Z,41.45
2019-01-25T01:25:15.548Z,45.30
2019-01-25T01:27:43.309Z,39.92
2019-01-25T01:30:16.006Z,45.47
2019-01-25T01:32:42.535Z,36.87
2019-01-25T01:35:10.194Z,41.95
2019-01-25T01:37:40.934Z,41.08
2019-01-25T01:40:22.108Z,38.42
2019-01-25T01:42:53.274Z,47.93
2019-01-25T01:45:21.411Z,54.23
2019-01-25T01:47:49.114Z,44.20
2019-01-25T01:50:17.443Z,41.65
2019-01-25T01:52:47.486Z,41.30
2019-01-25T01:55:14.565Z,39.53
2019-01-25T01:57:41.478Z,38.47
2019-01-25T02:00:17.186Z,40.47
2019-01-25T02:02:45.135Z,32.95
2019-01-25T02:05:17.180Z,45.28
2019-01-25T02:07:45.874Z,44.60
2019-01-25T02:10:29.037Z,48.93
2019-01-25T02:12:50.779Z,47.00
2019-01-25T02:15:19.024Z,48.97
2019-01-25T02:17:45.838Z,49.80
2019-01-25T02:20:24.070Z,46.05
2019-01-25T02:22:50.806Z,48.23
2019-01-25T02:25:17.806Z,39.98
2019-01-25T02:27:44.675Z,35.00
2019-01-25T02:30:20.010Z,43.30
2019-01-25T02:32:48.920Z,40.73
2019-01-25T02:35:16.151Z,46.08
2019-01-25T02:37:43.821Z,47.95
2019-01-25T02:40:17.068Z,49.20
2019-01-25T02:42:44.074Z,51.40
2019-01-25T02:45:13.150Z,44.63
2019-01-25T02:47:40.267Z,54.08
2019-01-25T02:50:12.765Z,45.03
2019-01-25T02:52:39.426Z,54.70
2019-01-25T02:55:08.167Z,43.05
2019-01-25T02:57:35.148Z,48.07
2019-01-25T03:00:04.004Z,46.50
2019-01-25T03:02:31.226Z,39.38
2019-01-25T03:04:58.028Z,45.83
2019-01-25T03:07:24.750Z,38.48
2019-01-25T03:10:13.518Z,44.43
2019-01-25T03:12:40.176Z,56.60
2019-01-25T03:15:11.322Z,51.60
2019-01-25T03:17:42.536Z,39.05
2019-01-25T03:20:11.976Z,51.58
2019-01-25T03:22:38.738Z,39.70
2019-01-25T03:25:11.827Z,49.93
2019-01-25T03:27:39.671Z,42.80
2019-01-25T03:30:10.113Z,53.48
2019-01-25T03:32:40.925Z,45.13
2019-01-25T03:35:10.532Z,46.48
2019-01-25T03:37:38.460Z,49.35
2019-01-25T03:40:10.035Z,44.00
2019-01-25T03:42:38.794Z,50.65
2019-01-25T03:45:07.181Z,44.70
2019-01-25T03:47:33.690Z,54.93
2019-01-25T03:50:01.455Z,44.33
2019-01-25T03:52:28.012Z,55.27
2019-01-25T03:54:59.098Z,55.55
2019-01-25T03:57:30.379Z,47.70
2019-01-25T03:59:56.978Z,53.98
2019-01-25T04:02:23.786Z,42.77
2019-01-25T04:04:50.564Z,41.37
2019-01-25T04:07:21.475Z,37.28
2019-01-25T04:09:51.800Z,45.67
2019-01-25T04:12:19.671Z,50.65
2019-01-25T04:14:47.546Z,44.75
2019-01-25T04:17:17.768Z,44.83
2019-01-25T04:19:44.606Z,48.97
2019-01-25T04:22:16.559Z,44.40
2019-01-25T04:24:43.319Z,49.90
2019-01-25T04:27:10.975Z,46.73
2019-01-25T04:29:42.940Z,54.60
2019-01-25T04:32:09.848Z,53.00
2019-01-25T04:34:36.390Z,42.90
2019-01-25T04:37:05.271Z,51.53
2019-01-25T04:39:32.770Z,45.30
2019-01-25T04:42:10.503Z,51.83
2019-01-25T04:44:38.343Z,45.03
2019-01-25T04:47:05.321Z,47.53
2019-01-25T04:49:34.595Z,44.63
2019-01-25T04:52:01.414Z,52.55
2019-01-25T04:54:28.163Z,51.37
2019-01-25T04:56:56.723Z,40.83
2019-01-25T04:59:28.057Z,37.80
2019-01-25T05:01:55.713Z,43.97
2019-01-25T05:04:22.555Z,47.53
2019-01-25T05:06:49.134Z,46.70
2019-01-25T05:09:15.808Z,56.63
2019-01-25T05:11:42.607Z,49.63
2019-01-25T05:14:10.432Z,45.48
2019-01-25T05:16:38.329Z,49.80
2019-01-25T05:19:05.175Z,44.10
2019-01-25T05:21:31.718Z,43.95
2019-01-25T05:23:58.428Z,43.98
2019-01-25T05:26:25.290Z,40.58
2019-01-25T05:28:57.044Z,49.23
2019-01-25T05:31:29.111Z,42.53
2019-01-25T05:33:56.641Z,45.85
2019-01-25T05:36:27.612Z,56.30
2019-01-25T05:38:56.200Z,49.15
2019-01-25T05:41:33.122Z,40.23
2019-01-25T05:44:01.042Z,44.47
2019-01-25T05:46:30.668Z,43.40
2019-01-25T05:48:57.425Z,54.27
2019-01-25T05:51:33.444Z,53.77
2019-01-25T05:53:55.731Z,55.83
2019-01-25T05:56:24.696Z,39.27
2019-01-25T05:58:51.312Z,43.87
2019-01-25T06:01:18.962Z,52.67
2019-01-25T06:03:46.743Z,37.70
2019-01-25T06:06:16.575Z,38.75
2019-01-25T06:08:44.237Z,43.47
2019-01-25T06:11:11.455Z,45.37
2019-01-25T06:13:44.402Z,49.93
2019-01-25T06:16:13.059Z,51.30
2019-01-25T06:18:45.110Z,40.95
2019-01-25T06:21:12.797Z,38.25
2019-01-25T06:23:44.318Z,39.58
2019-01-25T06:26:16.219Z,35.15
2019-01-25T06:28:48.060Z,40.33
2019-01-25T06:31:18.127Z,34.10
2019-01-25T06:33:44.957Z,39.73
2019-01-25T06:36:12.684Z,35.43
2019-01-25T06:38:40.618Z,32.33
2019-01-25T06:41:08.718Z,24.50
2019-01-25T06:43:36.383Z,37.05
2019-01-25T06:46:03.200Z,30.95
2019-01-25T06:48:30.246Z,36.77
2019-01-25T06:50:57.809Z,39.53
2019-01-25T06:53:24.820Z,32.40
2019-01-25T06:55:51.399Z,45.20
2019-01-25T06:58:25.928Z,40.40
2019-01-25T07:00:57.659Z,30.00
2019-01-25T07:03:24.161Z,33.87
2019-01-25T07:05:50.816Z,32.58
2019-01-25T07:08:19.159Z,36.55
2019-01-25T07:10:45.987Z,36.65
2019-01-25T07:13:14.698Z,36.23
2019-01-25T07:15:41.159Z,28.50
2019-01-25T07:18:08.994Z,30.62
2019-01-25T07:20:36.084Z,30.07
2019-01-25T07:23:03.754Z,35.50
2019-01-25T07:25:30.503Z,29.07
2019-01-25T07:27:57.063Z,31.30
2019-01-25T07:30:24.663Z,28.55
2019-01-25T07:32:51.347Z,41.70
2019-01-25T07:35:17.899Z,32.83
2019-01-25T07:37:44.760Z,31.87
2019-01-25T07:40:11.419Z,45.78
2019-01-25T07:42:38.317Z,41.13
2019-01-25T07:45:08.833Z,38.42
2019-01-25T07:47:37.383Z,42.62
2019-01-25T07:50:08.737Z,29.72
2019-01-25T07:52:35.370Z,40.05
2019-01-25T07:55:09.436Z,32.90
2019-01-25T07:57:36.122Z,35.30
2019-01-25T08:00:05.775Z,38.75
2019-01-25T08:02:32.252Z,40.20
2019-01-25T08:04:59.088Z,34.38
2019-01-25T08:07:26.740Z,36.17
2019-01-25T08:09:53.294Z,42.55
2019-01-25T08:12:19.832Z,37.53
2019-01-25T08:14:46.492Z,32.83
2019-01-25T08:17:14.335Z,33.02
2019-01-25T08:19:41.241Z,39.53
2019-01-25T08:22:08.924Z,36.85
2019-01-25T08:24:36.707Z,32.85
2019-01-25T08:27:03.264Z,44.53
2019-01-25T08:29:33.479Z,36.95
2019-01-25T08:32:06.165Z,35.50
2019-01-25T08:34:35.094Z,39.20
2019-01-25T08:37:01.732Z,38.05
2019-01-25T08:39:28.277Z,48.42
2019-01-25T08:42:00.014Z,36.50
2019-01-25T08:44:28.625Z,46.37
2019-01-25T08:46:59.782Z,44.33
2019-01-25T08:49:27.686Z,50.63
2019-01-25T08:51:54.341Z,67.58
2019-01-25T08:54:22.159Z,54.30
2019-01-25T08:56:50.047Z,53.30
2019-01-25T08:59:16.935Z,50.40
2019-01-25T09:01:45.813Z,51.68
2019-01-25T09:04:13.375Z,53.48
2019-01-25T09:06:41.165Z,44.47
2019-01-25T09:09:09.185Z,47.50
2019-01-25T09:11:37.163Z,51.23
2019-01-25T09:14:08.919Z,45.38
2019-01-25T09:16:35.796Z,56.35
2019-01-25T09:19:03.798Z,43.00
2019-01-25T09:21:31.738Z,44.90
2019-01-25T09:23:58.158Z,40.97
2019-01-25T09:26:24.732Z,46.40
2019-01-25T09:28:52.625Z,53.13
2019-01-25T09:31:28.246Z,51.55
2019-01-25T09:33:57.213Z,46.13
2019-01-25T09:36:23.779Z,49.00
2019-01-25T09:38:51.073Z,45.73
2019-01-25T09:41:17.623Z,50.57
2019-01-25T09:43:44.303Z,45.80
2019-01-25T09:46:11.155Z,59.77
2019-01-25T09:48:38.346Z,53.68
2019-01-25T09:51:05.161Z,47.83
2019-01-25T09:53:32.116Z,48.10
2019-01-25T09:55:59.528Z,54.10
2019-01-25T09:58:26.840Z,54.50
2019-01-25T10:00:59.827Z,52.40
2019-01-25T10:03:26.630Z,44.63
2019-01-25T10:05:55.249Z,55.63
2019-01-25T10:08:21.949Z,52.83
2019-01-25T10:10:48.585Z,47.33
2019-01-25T10:13:15.266Z,50.77
2019-01-25T10:15:41.831Z,54.03
2019-01-25T10:18:08.408Z,49.30
2019-01-25T10:20:35.381Z,46.73
2019-01-25T10:23:02.009Z,47.10
2019-01-25T10:25:28.909Z,45.30
2019-01-25T10:27:56.166Z,51.77
2019-01-25T10:30:26.839Z,46.40
2019-01-25T10:32:53.894Z,49.67
2019-01-25T10:35:22.696Z,42.30
2019-01-25T10:37:51.465Z,44.97
2019-01-25T10:40:21.711Z,47.63
2019-01-25T10:42:53.497Z,47.53
2019-01-25T10:45:36.851Z,39.20
2019-01-25T10:48:05.562Z,41.57
2019-01-25T10:50:40.371Z,44.13
2019-01-25T10:53:09.362Z,46.43
2019-01-25T10:55:36.191Z,42.37
2019-01-25T10:58:08.106Z,45.17
2019-01-25T11:00:36.288Z,50.73
2019-01-25T11:03:05.761Z,43.13
2019-01-25T11:05:37.524Z,43.90
2019-01-25T11:08:05.354Z,43.77
2019-01-25T11:10:33.049Z,43.53
2019-01-25T11:13:04.168Z,39.97
2019-01-25T11:15:31.150Z,49.00
2019-01-25T11:18:02.860Z,42.17
2019-01-25T11:20:29.763Z,44.90
2019-01-25T11:22:56.600Z,41.53
2019-01-25T11:25:29.863Z,38.93
2019-01-25T11:27:56.801Z,43.10
2019-01-25T11:30:23.691Z,36.40
2019-01-25T11:32:52.346Z,42.57
2019-01-25T11:35:18.958Z,40.93
2019-01-25T11:37:45.776Z,34.30
2019-01-25T11:40:21.381Z,44.83
2019-01-25T11:42:48.096Z,46.20
2019-01-25T11:45:18.407Z,44.07
2019-01-25T11:47:46.731Z,34.83
2019-01-25T11:50:19.228Z,37.13
2019-01-25T11:52:47.969Z,36.10
2019-01-25T11:55:17.921Z,38.27
2019-01-25T11:57:45.759Z,39.97
2019-01-25T12:00:17.507Z,37.07
2019-01-25T12:02:44.337Z,41.67
2019-01-25T12:05:14.435Z,36.87
2019-01-25T12:07:44.365Z,39.33
2019-01-25T12:10:15.600Z,36.23
2019-01-25T12:12:44.213Z,74.50
2019-01-25T12:15:13.336Z,43.63
2019-01-25T12:17:40.497Z,39.37
2019-01-25T12:20:20.431Z,39.27
2019-01-25T12:22:46.983Z,36.93
2019-01-25T12:25:13.518Z,40.87
2019-01-25T12:27:41.121Z,41.37
2019-01-25T12:30:11.971Z,39.50
2019-01-25T12:32:39.075Z,38.00
2019-01-25T12:35:11.632Z,37.20
2019-01-25T12:37:38.379Z,40.73
2019-01-25T12:40:08.978Z,38.57
2019-01-25T12:42:37.135Z,42.40
2019-01-25T12:45:09.007Z,43.83
2019-01-25T12:47:37.017Z,44.13
2019-01-25T12:50:17.457Z,42.73
2019-01-25T12:52:45.504Z,44.70
2019-01-25T12:55:12.274Z,37.40
2019-01-25T12:57:39.971Z,37.33
2019-01-25T13:00:16.296Z,44.87
2019-01-25T13:02:44.049Z,42.13
2019-01-25T13:05:15.018Z,45.20
2019-01-25T13:07:41.900Z,41.80
2019-01-25T13:10:14.916Z,37.83
2019-01-25T13:12:41.836Z,36.60
2019-01-25T13:15:10.560Z,43.63
2019-01-25T13:17:39.869Z,39.70
2019-01-25T13:20:18.421Z,48.30
2019-01-25T13:22:45.491Z,41.80
2019-01-25T13:25:13.611Z,39.47
2019-01-25T13:27:42.677Z,38.53
2019-01-25T13:30:17.339Z,45.90
2019-01-25T13:32:45.365Z,36.33
2019-01-25T13:35:12.286Z,40.33
2019-01-25T13:37:39.351Z,42.17
2019-01-25T13:40:11.057Z,43.47
2019-01-25T13:42:38.204Z,39.43
2019-01-25T13:45:08.555Z,43.67
2019-01-25T13:47:35.719Z,37.33
2019-01-25T13:50:05.701Z,38.97
2019-01-25T13:52:34.882Z,38.70
2019-01-25T13:55:01.963Z,41.50
2019-01-25T13:57:28.583Z,38.97
2019-01-25T13:59:57.276Z,41.10
2019-01-25T14:02:28.434Z,45.33
2019-01-25T14:05:04.378Z,38.73
2019-01-25T14:07:31.127Z,39.63
2019-01-25T14:09:58.235Z,42.07
2019-01-25T14:12:27.072Z,38.27
2019-01-25T14:14:54.953Z,42.43
2019-01-25T14:17:22.117Z,39.47
2019-01-25T14:19:52.875Z,42.60
2019-01-25T14:22:19.855Z,37.10
2019-01-25T14:24:47.460Z,43.77
2019-01-25T14:27:15.632Z,39.73
2019-01-25T14:29:42.512Z,42.13
2019-01-25T14:32:09.409Z,39.40
2019-01-25T14:34:37.472Z,36.53
2019-01-25T14:37:05.128Z,37.80
2019-01-25T14:39:37.820Z,46.63
2019-01-25T14:42:10.679Z,239.40
2019-01-25T14:44:39.562Z,63.00
2019-01-25T14:47:07.559Z,44.93
2019-01-25T14:49:37.470Z,38.30
2019-01-25T14:52:05.251Z,40.43
2019-01-25T14:54:33.773Z,46.90
2019-01-25T14:57:01.378Z,45.57
2019-01-25T14:59:39.683Z,38.07
2019-01-25T15:02:08.253Z,38.37
2019-01-25T15:04:36.178Z,43.87
2019-01-25T15:07:05.092Z,45.40
2019-01-25T15:09:31.647Z,41.73
2019-01-25T15:11:59.610Z,40.83
2019-01-25T15:14:28.660Z,49.27
2019-01-25T15:16:55.538Z,37.53
2019-01-25T15:19:23.112Z,38.23
2019-01-25T15:21:51.199Z,41.60
2019-01-25T15:24:18.030Z,42.33
2019-01-25T15:26:44.558Z,41.90
2019-01-25T15:29:11.528Z,40.40
2019-01-25T15:31:38.422Z,41.43
2019-01-25T15:34:09.221Z,40.07
2019-01-25T15:36:36.153Z,37.30
2019-01-25T15:39:05.801Z,38.17
2019-01-25T15:41:32.888Z,44.63
2019-01-25T15:43:59.512Z,41.67
2019-01-25T15:46:27.563Z,39.57
2019-01-25T15:48:58.679Z,37.10
2019-01-25T15:51:27.631Z,44.13
2019-01-25T15:53:54.287Z,40.47
2019-01-25T15:56:21.189Z,44.77
2019-01-25T15:58:48.813Z,38.70
2019-01-25T16:01:20.089Z,40.70
2019-01-25T16:03:46.691Z,42.07
2019-01-25T16:06:17.108Z,37.10
2019-01-25T16:08:45.101Z,41.67
2019-01-25T16:11:15.720Z,38.57
2019-01-25T16:13:42.289Z,39.23
2019-01-25T16:16:09.262Z,38.43
2019-01-25T16:18:36.231Z,37.53
2019-01-25T16:21:03.367Z,40.93
2019-01-25T16:23:32.346Z,42.47
2019-01-25T16:26:01.169Z,44.97
2019-01-25T16:28:27.800Z,42.43
2019-01-25T16:30:55.474Z,45.03
2019-01-25T16:33:22.297Z,53.03
2019-01-25T16:35:49.073Z,54.23
2019-01-25T16:38:16.406Z,47.50
2019-01-25T16:40:43.168Z,50.10
2019-01-25T16:43:10.321Z,46.73
2019-01-25T16:45:39.189Z,38.20
2019-01-25T16:48:10.400Z,42.10
2019-01-25T16:50:37.521Z,40.80
2019-01-25T16:53:18.444Z,42.10
2019-01-25T16:55:45.366Z,42.93
2019-01-25T16:58:12.696Z,42.87
2019-01-25T17:00:44.373Z,45.00
2019-01-25T17:03:13.711Z,43.07
2019-01-25T17:05:41.430Z,34.27
2019-01-25T17:08:11.202Z,39.10
2019-01-25T17:10:38.401Z,45.60
2019-01-25T17:13:09.728Z,36.53
2019-01-25T17:15:37.727Z,44.73
2019-01-25T17:18:06.191Z,36.87
2019-01-25T17:20:39.029Z,41.10
2019-01-25T17:23:05.745Z,56.50
2019-01-25T17:25:34.268Z,52.07
2019-01-25T17:28:03.401Z,48.87
2019-01-25T17:30:34.054Z,42.53
2019-01-25T17:33:01.786Z,40.33
2019-01-25T17:35:31.012Z,43.43
2019-01-25T17:38:01.587Z,37.30
2019-01-25T17:40:30.885Z,43.07
2019-01-25T17:42:59.955Z,45.13
2019-01-25T17:45:29.870Z,48.07
2019-01-25T17:47:56.946Z,52.87
2019-01-25T17:50:23.575Z,45.77
2019-01-25T17:52:55.063Z,52.03
2019-01-25T17:55:22.841Z,58.83
2019-01-25T17:57:50.772Z,53.83
2019-01-25T18:00:31.101Z,41.17
2019-01-25T18:03:10.391Z,59.50
2019-01-25T18:05:37.332Z,41.13
2019-01-25T18:08:09.575Z,43.27
2019-01-25T18:10:37.479Z,37.90
2019-01-25T18:13:06.694Z,43.07
2019-01-25T18:15:41.350Z,42.97
2019-01-25T18:18:12.818Z,49.23
2019-01-25T18:20:39.470Z,42.27
2019-01-25T18:23:07.136Z,55.87
2019-01-25T18:25:47.708Z,43.20
2019-01-25T18:28:20.391Z,40.70
2019-01-25T18:31:02.966Z,40.77
2019-01-25T18:33:31.952Z,50.47
2019-01-25T18:36:02.142Z,34.50
2019-01-25T18:38:30.213Z,42.70
2019-01-25T18:41:18.607Z,45.20
2019-01-25T18:47:16.376Z,36.47
2019-01-25T18:50:13.992Z,37.43
2019-01-25T18:52:45.479Z,35.53
2019-01-25T18:55:15.260Z,30.97
2019-01-25T18:57:42.240Z,32.00
2019-01-25T19:00:36.614Z,32.90
2019-01-25T19:03:05.002Z,27.37
2019-01-25T19:05:32.866Z,33.90
2019-01-25T19:08:01.231Z,30.27
2019-01-25T19:10:34.223Z,33.17
2019-01-25T19:13:05.378Z,31.57
2019-01-25T19:15:36.663Z,34.27
2019-01-25T19:18:04.666Z,29.67
2019-01-25T19:20:36.145Z,29.60
2019-01-25T19:23:03.063Z,29.90
2019-01-25T19:25:31.108Z,30.17
2019-01-25T19:27:57.911Z,31.13
2019-01-25T19:30:34.516Z,25.67
2019-01-25T19:33:03.628Z,29.80
2019-01-25T19:35:33.035Z,24.00
2019-01-25T19:38:01.824Z,24.87
2019-01-25T19:40:31.800Z,22.77
2019-01-25T19:42:58.487Z,22.73
2019-01-25T19:45:25.485Z,25.30
2019-01-25T19:47:53.636Z,19.97
2019-01-25T19:50:26.379Z,27.07
2019-01-25T19:52:54.583Z,23.03
2019-01-25T19:55:27.437Z,23.03
2019-01-25T19:57:54.704Z,27.67
2019-01-25T20:00:26.941Z,20.37
2019-01-25T20:02:56.929Z,24.03
2019-01-25T20:05:25.998Z,21.17
2019-01-25T20:07:52.814Z,19.70
2019-01-25T20:10:21.890Z,22.83
2019-01-25T20:12:48.951Z,20.50
2019-01-25T20:15:19.597Z,19.13
2019-01-25T20:17:46.755Z,20.90
2019-01-25T20:20:17.725Z,19.27
2019-01-25T20:22:46.302Z,17.67
2019-01-25T20:25:19.835Z,17.67
2019-01-25T20:27:47.835Z,16.20
2019-01-25T20:30:24.461Z,20.37
2019-01-25T20:32:52.654Z,15.07
2019-01-25T20:35:30.577Z,21.17
2019-01-25T20:38:02.825Z,18.03
2019-01-25T20:40:31.192Z,19.67
2019-01-25T20:42:58.271Z,15.40
2019-01-25T20:45:27.939Z,16.90
2019-01-25T20:47:55.705Z,16.67
2019-01-25T20:50:27.948Z,13.00
2019-01-25T20:52:56.811Z,16.97
2019-01-25T20:55:25.930Z,15.27
2019-01-25T20:57:56.800Z,15.50
2019-01-25T21:00:53.998Z,13.77
2019-01-25T21:06:41.436Z,13.97
2019-01-25T21:09:10.549Z,11.43
2019-01-25T21:11:38.027Z,12.40
2019-01-25T21:14:16.506Z,14.83
2019-01-25T21:16:46.953Z,14.57
2019-01-25T21:19:14.720Z,11.87
2019-01-25T21:21:41.712Z,12.67
2019-01-25T21:24:10.065Z,10.73
2019-01-25T21:26:45.535Z,16.83
2019-01-25T21:29:14.534Z,13.87
2019-01-25T21:31:43.346Z,11.20
2019-01-25T21:34:14.729Z,12.80
2019-01-25T21:36:44.653Z,11.80
2019-01-25T21:39:13.179Z,14.13
2019-01-25T21:41:45.682Z,15.63
2019-01-25T21:44:13.615Z,9.70
2019-01-25T21:46:45.776Z,12.60
2019-01-25T21:49:20.927Z,12.77
2019-01-25T21:51:51.628Z,12.83
2019-01-25T21:54:21.842Z,11.80
2019-01-25T21:56:56.709Z,9.40
2019-01-25T21:59:26.268Z,9.20
2019-01-25T22:01:53.919Z,11.30
2019-01-25T22:04:23.346Z,8.93
2019-01-25T22:06:50.964Z,7.93
2019-01-25T22:12:40.860Z,11.37
2019-01-25T22:15:15.934Z,11.60
2019-01-25T22:17:49.006Z,11.63
2019-01-25T22:20:21.960Z,9.70
2019-01-25T22:23:06.580Z,11.23
2019-01-25T22:25:42.953Z,9.20
2019-01-25T22:28:28.756Z,9.50
2019-01-25T22:31:02.966Z,8.70
2019-01-25T22:33:30.382Z,9.10
2019-01-25T22:36:06.632Z,8.07
2019-01-25T22:38:34.852Z,7.97
2019-01-25T22:41:18.363Z,8.33
2019-01-25T22:43:50.117Z,10.63
2019-01-25T22:46:18.304Z,7.73
2019-01-25T22:48:52.223Z,9.83
2019-01-25T22:51:23.850Z,8.97
2019-01-25T22:53:51.245Z,6.70
2019-01-25T22:56:18.530Z,10.00
2019-01-25T22:58:47.622Z,8.03
2019-01-25T23:01:18.560Z,9.50
2019-01-25T23:03:57.010Z,7.03
2019-01-25T23:06:37.657Z,7.17
2019-01-25T23:09:12.843Z,6.90
2019-01-25T23:11:53.045Z,9.03
2019-01-25T23:14:21.432Z,7.57
2019-01-25T23:16:50.775Z,8.10
2019-01-25T23:19:20.105Z,6.93
2019-01-25T23:21:47.498Z,8.97
2019-01-25T23:24:14.943Z,6.70
2019-01-25T23:26:42.752Z,10.20
2019-01-25T23:29:13.954Z,8.67
2019-01-25T23:31:41.619Z,9.20
2019-01-25T23:34:10.028Z,7.63
2019-01-25T23:36:37.547Z,8.57
2019-01-25T23:39:08.660Z,9.87
2019-01-25T23:41:37.892Z,13.37
2019-01-25T23:44:05.186Z,12.10
2019-01-25T23:46:33.025Z,9.97
2019-01-25T23:49:13.686Z,9.03
2019-01-25T23:51:41.191Z,9.80
2019-01-25T23:54:09.061Z,8.67
2019-01-25T23:56:38.472Z,8.90
2019-01-25T23:59:10.302Z,9.33
